Belgium, New York
Current Conditions -  °F | °C
As of 10:54 PM on Thursday 27 Nov 2014 (Local Time) from KFZY Reporting Station
Scattered Clouds Scattered Clouds  
Wind Chill: 19°   Ceiling: Unl
Heat Index: 26°   Visibility: 10mi
Dew Point: 19°   Wind: 6mph
Humidity: 75%   Direction: 270°W
Pressure: 30.07"   Gusts: NA
Location:  43.1825°N, 76.3664°W
Report Text: KFZY 280354Z AUTO 27005KT 10SM FEW030 SCT120 M03/M07 A3007 RMK AO2 SLP187 T10331072
Loading
Personal Weather Stations






























Interactive Weather Map New forecast layout! Learn more

10-Day Weather Forecast

Advertisements
Track Severe Weather on mobile